Time;durP1;ratioP1;P1;durP2;ratioP2;P2;SDS_P1;SDS_P2;PMS_P1;PMS_P2;Temp;Humidity;BMP_temperature;BMP_pressure;BME280_temperature;BME280_humidity;BME280_pressure;Samples;Min_cycle;Max_cycle;Signal;HPM_P1;HPM_P2
2021/03/20 00:00:54;;;;;;;5.03;1.90;;;5.60;99.90;;;;;;4917041;29;20227;-68
2021/03/20 00:03:21;;;;;;;7.67;1.87;;;5.50;99.90;;;;;;4916881;29;20209;-68
2021/03/20 00:05:48;;;;;;;4.00;1.60;;;5.60;99.90;;;;;;4918808;29;20242;-68
2021/03/20 00:08:18;;;;;;;6.47;1.87;;;5.70;99.90;;;;;;4920751;29;20220;-68
2021/03/20 00:10:45;;;;;;;3.43;1.80;;;5.70;99.90;;;;;;4920675;29;20292;-68
2021/03/20 00:13:12;;;;;;;6.40;1.93;;;5.70;99.90;;;;;;4920479;29;20550;-68
2021/03/20 00:15:39;;;;;;;3.77;1.90;;;5.80;99.90;;;;;;4920541;29;20224;-68
2021/03/20 00:18:07;;;;;;;2.77;1.77;;;5.70;99.90;;;;;;4920485;29;20221;-68
2021/03/20 00:20:36;;;;;;;2.30;1.53;;;5.60;99.90;;;;;;4920447;29;20213;-68
2021/03/20 00:23:02;;;;;;;4.90;2.20;;;5.60;99.90;;;;;;4920369;29;20220;-68
2021/03/20 00:25:29;;;;;;;5.70;2.20;;;5.60;99.90;;;;;;4920364;29;20410;-68
2021/03/20 00:27:56;;;;;;;3.57;2.07;;;5.70;99.90;;;;;;4920342;29;20233;-67
2021/03/20 00:30:24;;;;;;;5.53;2.10;;;5.60;99.90;;;;;;4920478;29;20257;-68
2021/03/20 00:32:50;;;;;;;6.50;2.33;;;5.60;99.90;;;;;;4920398;29;20215;-68
2021/03/20 00:35:20;;;;;;;5.10;2.30;;;5.50;99.90;;;;;;4920540;29;20221;-67
2021/03/20 00:37:47;;;;;;;6.03;2.60;;;5.50;99.90;;;;;;4920075;29;20289;-68
2021/03/20 00:40:16;;;;;;;3.53;2.30;;;5.50;99.90;;;;;;4920012;29;20277;-68
2021/03/20 00:42:42;;;;;;;8.80;2.13;;;5.60;99.90;;;;;;4920144;29;20577;-68
2021/03/20 00:45:15;;;;;;;6.97;3.00;;;5.50;99.90;;;;;;4920079;29;20237;-68
2021/03/20 00:47:42;;;;;;;5.47;2.20;;;5.50;99.90;;;;;;4919709;29;20229;-68
2021/03/20 00:50:11;;;;;;;6.43;2.33;;;5.40;99.90;;;;;;4919804;29;20217;-68
2021/03/20 00:52:39;;;;;;;6.93;2.60;;;5.40;99.90;;;;;;4919818;29;20213;-68
2021/03/20 00:55:07;;;;;;;7.20;2.83;;;5.40;99.90;;;;;;4919995;29;20573;-67
2021/03/20 00:57:33;;;;;;;4.37;2.60;;;5.40;99.90;;;;;;4919426;29;20662;-67
2021/03/20 01:00:00;;;;;;;6.87;2.80;;;5.40;99.90;;;;;;4919784;29;20217;-67
2021/03/20 01:02:26;;;;;;;11.33;2.73;;;5.40;99.90;;;;;;4919790;29;20657;-68
2021/03/20 01:04:52;;;;;;;5.10;2.67;;;5.40;99.90;;;;;;4919818;29;20271;-68
2021/03/20 01:07:18;;;;;;;4.70;2.67;;;5.40;99.90;;;;;;4919759;29;20234;-68
2021/03/20 01:09:45;;;;;;;5.97;3.30;;;5.40;99.90;;;;;;4919664;29;20214;-67
2021/03/20 01:12:12;;;;;;;4.33;2.80;;;5.40;99.90;;;;;;4919619;29;20213;-68
2021/03/20 01:14:38;;;;;;;7.50;3.00;;;5.40;99.90;;;;;;4919638;29;20218;-67
2021/03/20 01:17:04;;;;;;;4.83;2.93;;;5.40;99.90;;;;;;4919296;29;20229;-68
2021/03/20 01:19:31;;;;;;;4.70;3.00;;;5.50;99.90;;;;;;4919351;29;20665;-68
2021/03/20 01:21:57;;;;;;;4.80;2.87;;;5.50;99.90;;;;;;4919365;29;20214;-68
2021/03/20 01:24:23;;;;;;;12.07;3.30;;;5.60;99.90;;;;;;4919274;29;20241;-68
2021/03/20 01:26:50;;;;;;;8.50;3.13;;;5.50;99.90;;;;;;4919127;29;20305;-68
2021/03/20 01:29:16;;;;;;;11.67;3.30;;;5.40;99.90;;;;;;4919290;29;20990;-68
2021/03/20 01:31:43;;;;;;;8.97;3.50;;;5.30;99.90;;;;;;4919054;29;20723;-67
2021/03/20 01:34:09;;;;;;;6.33;3.30;;;5.20;99.90;;;;;;4919376;29;20224;-67
2021/03/20 01:36:35;;;;;;;10.97;3.63;;;5.10;99.90;;;;;;4919713;29;20244;-68
2021/03/20 01:39:01;;;;;;;6.00;3.60;;;5.00;99.90;;;;;;4919086;29;20585;-67
2021/03/20 01:41:28;;;;;;;8.50;3.60;;;4.90;99.90;;;;;;4918845;29;20210;-68
2021/03/20 01:43:55;;;;;;;8.33;3.87;;;4.90;99.90;;;;;;4918909;29;20210;-68
2021/03/20 01:46:43;;;;;;;6.13;3.40;;;4.90;99.90;;;;;;4918679;29;20230;-68
2021/03/20 01:49:18;;;;;;;6.63;4.13;;;4.90;99.90;;;;;;4918886;29;20217;-68
2021/03/20 01:51:54;;;;;;;6.27;3.53;;;4.80;99.90;;;;;;4919054;29;20233;-68
2021/03/20 01:54:21;;;;;;;13.50;4.00;;;4.80;99.90;;;;;;4919017;29;20217;-68
2021/03/20 01:56:48;;;;;;;7.63;4.20;;;4.70;99.90;;;;;;4918660;29;20234;-68
2021/03/20 01:59:16;;;;;;;7.63;3.97;;;4.60;99.90;;;;;;4919015;29;20214;-68
2021/03/20 02:01:43;;;;;;;6.13;3.70;;;4.70;99.90;;;;;;4918658;29;20213;-68
2021/03/20 02:04:09;;;;;;;6.60;3.43;;;4.60;99.90;;;;;;4918553;29;20240;-68
2021/03/20 02:06:35;;;;;;;6.80;3.90;;;4.60;99.90;;;;;;4918546;29;20379;-68
2021/03/20 02:09:07;;;;;;;7.87;4.23;;;4.50;99.90;;;;;;4918540;29;20261;-67
2021/03/20 02:11:38;;;;;;;10.03;4.40;;;4.50;99.90;;;;;;4918079;29;20213;-67
2021/03/20 02:14:16;;;;;;;6.77;3.70;;;4.50;99.90;;;;;;4918496;29;20217;-68
2021/03/20 02:16:50;;;;;;;7.00;4.00;;;4.50;99.90;;;;;;4918339;29;20234;-68
2021/03/20 02:19:35;;;;;;;7.30;4.10;;;4.50;99.90;;;;;;4918479;29;20209;-68
2021/03/20 02:22:04;;;;;;;8.83;4.13;;;4.40;99.90;;;;;;4918452;29;20213;-68
2021/03/20 02:25:11;;;;;;;8.20;4.70;;;4.40;99.90;;;;;;4918000;29;20230;-68
2021/03/20 02:28:19;;;;;;;9.67;5.00;;;4.30;99.90;;;;;;4917513;29;20634;-68
2021/03/20 02:31:23;;;;;;;9.00;4.27;;;4.20;99.90;;;;;;4911880;29;20221;-68
2021/03/20 02:34:02;;;;;;;8.20;4.37;;;4.20;99.90;;;;;;4917872;29;20209;-68
2021/03/20 02:36:36;;;;;;;5.97;3.93;;;4.10;99.90;;;;;;4917842;29;20229;-68
2021/03/20 02:39:08;;;;;;;9.43;4.53;;;4.10;99.90;;;;;;4917751;29;20224;-68
2021/03/20 02:41:47;;;;;;;9.70;5.00;;;4.00;99.90;;;;;;4917928;29;20210;-68
2021/03/20 02:44:19;;;;;;;9.67;4.93;;;4.00;99.90;;;;;;4917948;29;20256;-68
2021/03/20 02:46:52;;;;;;;8.47;4.57;;;4.00;99.90;;;;;;4917460;29;20240;-68
2021/03/20 02:49:24;;;;;;;9.53;4.93;;;3.90;99.90;;;;;;4917816;29;20584;-68
2021/03/20 02:51:54;;;;;;;8.87;4.40;;;3.80;99.90;;;;;;4917957;29;20265;-68
2021/03/20 02:54:25;;;;;;;11.23;5.20;;;3.80;99.90;;;;;;4917805;29;20217;-68
2021/03/20 02:56:58;;;;;;;12.40;5.20;;;3.60;99.90;;;;;;4917290;29;20637;-68
2021/03/20 02:59:29;;;;;;;7.70;4.57;;;3.70;99.90;;;;;;4917564;29;20213;-67
2021/03/20 03:01:58;;;;;;;8.60;5.23;;;3.60;99.90;;;;;;4917723;29;20220;-68
2021/03/20 03:04:29;;;;;;;9.80;5.10;;;3.70;99.90;;;;;;4917752;29;20685;-68
2021/03/20 03:07:01;;;;;;;10.00;5.13;;;3.60;99.90;;;;;;4917492;29;20237;-68
2021/03/20 03:09:33;;;;;;;11.07;5.17;;;3.50;99.90;;;;;;4917338;29;20217;-68
2021/03/20 03:12:05;;;;;;;11.20;5.47;;;3.50;99.90;;;;;;4917120;29;20220;-67
2021/03/20 03:14:35;;;;;;;8.03;5.00;;;3.60;99.90;;;;;;4917536;29;20221;-68
2021/03/20 03:17:03;;;;;;;10.50;5.00;;;3.60;99.90;;;;;;4917178;29;20654;-68
2021/03/20 03:19:35;;;;;;;8.60;5.17;;;3.60;99.90;;;;;;4917223;29;20213;-68
2021/03/20 03:22:05;;;;;;;10.53;4.83;;;3.60;99.90;;;;;;4917173;29;20236;-68
2021/03/20 03:24:33;;;;;;;10.47;4.93;;;3.30;99.90;;;;;;4917196;29;20245;-67
2021/03/20 03:27:04;;;;;;;11.33;5.33;;;3.10;99.90;;;;;;4917015;29;20238;-68
2021/03/20 03:29:33;;;;;;;8.53;4.80;;;3.10;99.90;;;;;;4917262;29;20267;-68
2021/03/20 03:32:09;;;;;;;8.53;4.50;;;3.00;99.90;;;;;;4917121;29;20257;-68
2021/03/20 03:34:48;;;;;;;6.93;4.27;;;3.00;99.90;;;;;;4917036;29;20209;-68
2021/03/20 03:37:19;;;;;;;7.63;4.23;;;3.00;99.90;;;;;;4916905;29;20236;-68
2021/03/20 03:39:51;;;;;;;8.07;4.60;;;3.10;99.90;;;;;;4916272;29;20226;-68
2021/03/20 03:42:19;;;;;;;13.43;6.37;;;3.10;99.90;;;;;;4916897;29;20218;-68
2021/03/20 03:44:47;;;;;;;8.43;5.40;;;3.10;99.90;;;;;;4917019;29;20335;-68
2021/03/20 03:47:15;;;;;;;10.10;5.20;;;3.10;99.90;;;;;;4916602;29;20737;-68
2021/03/20 03:49:42;;;;;;;7.10;4.80;;;3.10;99.90;;;;;;4917279;29;20217;-68
2021/03/20 03:52:11;;;;;;;10.30;5.20;;;3.10;99.90;;;;;;4916949;29;20210;-67
2021/03/20 03:54:37;;;;;;;8.23;4.53;;;3.10;99.90;;;;;;4916862;29;20214;-68
2021/03/20 03:57:45;;;;;;;9.00;4.10;;;3.30;99.90;;;;;;4916433;29;20230;-68
2021/03/20 04:00:20;;;;;;;13.10;5.40;;;3.50;99.90;;;;;;4893849;29;20383;-69
2021/03/20 04:03:22;;;;;;;6.87;4.63;;;3.50;99.90;;;;;;4917019;29;20303;-68
2021/03/20 04:06:02;;;;;;;12.47;5.47;;;3.50;99.90;;;;;;4904257;29;20241;-68
2021/03/20 04:08:37;;;;;;;9.23;5.10;;;3.60;99.90;;;;;;4916568;29;20613;-68
2021/03/20 04:11:11;;;;;;;12.93;5.37;;;3.50;99.90;;;;;;4916736;29;20239;-68
2021/03/20 04:13:43;;;;;;;8.40;5.97;;;3.40;99.90;;;;;;4916755;29;20221;-68
2021/03/20 04:16:13;;;;;;;8.13;4.87;;;3.40;99.90;;;;;;4916659;29;20241;-69
2021/03/20 04:18:47;;;;;;;11.17;4.93;;;3.30;99.90;;;;;;4916492;29;20561;-67
2021/03/20 04:21:24;;;;;;;11.77;6.13;;;3.20;99.90;;;;;;4916726;29;20210;-67
2021/03/20 04:24:02;;;;;;;10.53;5.40;;;3.10;99.90;;;;;;4916621;29;20220;-68
2021/03/20 04:26:36;;;;;;;11.70;5.97;;;3.20;99.90;;;;;;4916445;29;20292;-68
2021/03/20 04:29:07;;;;;;;9.73;5.97;;;3.20;99.90;;;;;;4916723;29;20217;-67
2021/03/20 04:31:37;;;;;;;11.43;5.33;;;3.20;99.90;;;;;;4916883;29;20213;-68
2021/03/20 04:34:10;;;;;;;9.60;5.63;;;3.10;99.90;;;;;;4916448;29;20209;-68
2021/03/20 04:36:42;;;;;;;11.87;5.60;;;3.00;99.90;;;;;;4916474;29;20234;-67
2021/03/20 04:39:10;;;;;;;11.77;5.27;;;2.90;99.90;;;;;;4916379;29;20224;-69
2021/03/20 04:41:37;;;;;;;11.67;5.53;;;2.90;99.90;;;;;;4916367;29;20569;-69
2021/03/20 04:44:05;;;;;;;8.13;5.33;;;2.90;99.90;;;;;;4916486;29;20217;-68
2021/03/20 04:46:36;;;;;;;10.97;5.73;;;2.90;99.90;;;;;;4916232;29;20237;-68
2021/03/20 04:49:13;;;;;;;9.80;5.97;;;2.80;99.90;;;;;;4916244;29;20233;-68
2021/03/20 04:51:44;;;;;;;12.40;4.60;;;2.80;99.90;;;;;;4917906;29;20205;-68
2021/03/20 04:54:13;;;;;;;9.40;4.63;;;2.80;99.90;;;;;;4919946;29;20209;-68
2021/03/20 04:56:45;;;;;;;8.67;4.90;;;2.70;99.90;;;;;;4919803;29;20248;-68
2021/03/20 04:59:24;;;;;;;9.87;5.40;;;2.60;99.90;;;;;;4920094;29;20216;-68
2021/03/20 05:01:54;;;;;;;12.63;5.73;;;2.70;99.90;;;;;;4919631;29;20217;-67
2021/03/20 05:04:25;;;;;;;9.63;4.93;;;2.70;99.90;;;;;;4919298;29;20233;-67
2021/03/20 05:06:55;;;;;;;8.90;5.40;;;2.70;99.90;;;;;;4919683;29;20233;-68
2021/03/20 05:09:23;;;;;;;8.27;4.73;;;2.60;99.90;;;;;;4919850;29;20264;-67
2021/03/20 05:11:56;;;;;;;9.43;5.33;;;2.70;99.90;;;;;;4919388;29;20214;-67
2021/03/20 05:14:28;;;;;;;8.30;5.03;;;2.50;99.90;;;;;;4919365;29;20220;-67
2021/03/20 05:16:56;;;;;;;7.20;4.67;;;2.50;99.90;;;;;;4919297;29;20327;-67
2021/03/20 05:19:24;;;;;;;10.53;5.53;;;2.40;99.90;;;;;;4919484;29;20669;-67
2021/03/20 05:21:54;;;;;;;11.80;5.50;;;2.40;99.90;;;;;;4919499;29;20209;-67
2021/03/20 05:24:23;;;;;;;10.50;4.97;;;2.40;99.90;;;;;;4919377;29;20264;-67
2021/03/20 05:26:51;;;;;;;9.73;4.73;;;2.40;99.90;;;;;;4919014;29;20229;-67
2021/03/20 05:29:17;;;;;;;13.93;5.33;;;2.40;99.90;;;;;;4918988;29;20212;-67
2021/03/20 05:31:44;;;;;;;9.83;5.27;;;2.30;99.90;;;;;;4919474;29;20210;-67
2021/03/20 05:34:19;;;;;;;6.90;4.63;;;2.30;99.90;;;;;;4919073;29;20668;-67
2021/03/20 05:36:45;;;;;;;11.00;5.40;;;2.30;99.90;;;;;;4918968;29;20233;-67
2021/03/20 05:39:13;;;;;;;10.37;5.13;;;2.30;99.90;;;;;;4918822;29;20559;-67
2021/03/20 05:42:07;;;;;;;9.27;5.10;;;2.30;99.90;;;;;;4918771;29;20210;-67
2021/03/20 05:44:47;;;;;;;9.50;5.40;;;2.30;99.90;;;;;;4918833;29;20226;-67
2021/03/20 05:47:25;;;;;;;9.37;5.40;;;2.40;99.90;;;;;;4918887;29;20708;-67
2021/03/20 05:50:02;;;;;;;9.13;5.10;;;2.50;99.90;;;;;;4918946;29;20217;-67
2021/03/20 05:52:42;;;;;;;9.80;5.83;;;2.60;99.90;;;;;;4919146;29;20217;-67
2021/03/20 05:55:28;;;;;;;9.60;6.10;;;2.70;99.90;;;;;;4918903;29;20245;-68
2021/03/20 05:58:04;;;;;;;10.03;6.10;;;2.70;99.90;;;;;;4918056;29;20233;-67
2021/03/20 06:00:42;;;;;;;10.70;6.23;;;2.70;99.90;;;;;;4918562;29;20224;-68
2021/03/20 06:03:35;;;;;;;13.97;6.77;;;2.70;99.90;;;;;;4917837;29;20216;-67
2021/03/20 06:06:05;;;;;;;8.43;5.50;;;2.70;99.90;;;;;;4911770;29;20249;-67
2021/03/20 06:08:44;;;;;;;11.57;6.37;;;2.90;99.90;;;;;;4918579;29;20214;-68
2021/03/20 06:11:34;;;;;;;9.80;5.87;;;3.00;99.90;;;;;;4918418;29;20209;-67
2021/03/20 06:14:22;;;;;;;15.10;6.40;;;3.10;99.90;;;;;;4918593;29;20343;-68
2021/03/20 06:17:03;;;;;;;9.43;5.87;;;3.10;99.90;;;;;;4912984;29;20229;-67
2021/03/20 06:19:43;;;;;;;13.57;6.67;;;3.20;99.90;;;;;;4918501;29;20669;-68
2021/03/20 06:22:25;;;;;;;13.80;6.50;;;3.20;99.90;;;;;;4918517;29;20622;-67
2021/03/20 06:25:11;;;;;;;12.47;6.20;;;3.20;99.90;;;;;;4918172;29;20676;-67
2021/03/20 06:27:41;;;;;;;12.47;6.17;;;3.20;99.90;;;;;;4918092;29;20288;-68
2021/03/20 06:30:23;;;;;;;10.37;6.43;;;3.30;99.90;;;;;;4918339;29;20669;-68
2021/03/20 06:32:53;;;;;;;12.23;6.53;;;3.30;99.90;;;;;;4918267;29;20210;-68
2021/03/20 06:35:33;;;;;;;11.10;5.97;;;3.30;99.90;;;;;;4918166;29;20210;-67
2021/03/20 06:38:02;;;;;;;19.27;7.00;;;3.40;99.90;;;;;;4917994;29;20265;-67
2021/03/20 06:40:47;;;;;;;11.33;6.47;;;3.70;99.90;;;;;;4917935;29;20217;-67
2021/03/20 06:43:17;;;;;;;12.27;6.97;;;3.80;99.90;;;;;;4918133;29;20221;-67
2021/03/20 06:45:44;;;;;;;11.23;6.50;;;4.00;99.90;;;;;;4917727;29;20240;-67
2021/03/20 06:48:15;;;;;;;11.07;6.73;;;4.10;99.90;;;;;;4917971;29;20217;-67
2021/03/20 06:50:45;;;;;;;11.47;6.20;;;4.30;99.90;;;;;;4917681;29;20209;-67
2021/03/20 06:53:15;;;;;;;11.70;6.00;;;4.40;99.90;;;;;;4917878;29;20206;-67
2021/03/20 06:55:43;;;;;;;17.83;6.87;;;4.10;99.90;;;;;;4917555;29;20228;-67
2021/03/20 06:58:19;;;;;;;14.53;6.53;;;4.30;99.90;;;;;;4917737;29;20667;-67
2021/03/20 07:00:46;;;;;;;11.07;6.37;;;4.40;99.90;;;;;;4917887;29;20209;-67
2021/03/20 07:03:49;;;;;;;11.13;6.43;;;4.60;99.90;;;;;;4918124;29;20217;-69
2021/03/20 07:06:20;;;;;;;13.57;7.37;;;4.60;99.90;;;;;;4917300;29;20248;-69
2021/03/20 07:08:52;;;;;;;11.50;6.40;;;4.70;99.90;;;;;;4917355;29;20736;-68
2021/03/20 07:11:23;;;;;;;10.17;5.80;;;4.70;99.90;;;;;;4917358;29;20665;-69
2021/03/20 07:13:53;;;;;;;15.57;7.07;;;4.60;99.90;;;;;;4917184;29;20636;-69
2021/03/20 07:16:21;;;;;;;12.23;6.50;;;4.50;99.90;;;;;;4918872;29;20225;-69
2021/03/20 07:18:49;;;;;;;10.97;6.37;;;4.50;99.90;;;;;;4917396;29;20210;-69
2021/03/20 07:21:30;;;;;;;12.13;6.50;;;4.70;99.90;;;;;;4917363;29;20217;-69
2021/03/20 07:24:01;;;;;;;12.13;6.73;;;5.00;99.90;;;;;;4917051;29;20216;-69
2021/03/20 07:26:28;;;;;;;11.20;6.83;;;5.10;99.90;;;;;;4917019;29;20249;-69
2021/03/20 07:28:57;;;;;;;10.60;6.23;;;5.20;99.90;;;;;;4917213;29;20209;-69
2021/03/20 07:31:24;;;;;;;12.90;6.67;;;5.40;99.90;;;;;;4917009;29;20260;-69
2021/03/20 07:33:52;;;;;;;8.50;5.77;;;5.50;99.90;;;;;;4916883;29;20691;-68
2021/03/20 07:36:27;;;;;;;10.37;6.03;;;5.80;99.90;;;;;;4917227;29;20242;-66
2021/03/20 07:39:13;;;;;;;9.90;5.90;;;6.30;99.90;;;;;;4916928;29;20213;-67
2021/03/20 07:41:53;;;;;;;9.70;5.03;;;7.00;99.90;;;;;;4917579;29;20212;-68
2021/03/20 07:44:21;;;;;;;7.93;4.37;;;7.30;99.90;;;;;;4917089;29;20577;-67
2021/03/20 07:46:48;;;;;;;8.07;4.67;;;7.80;99.90;;;;;;4916787;29;20233;-67
2021/03/20 07:49:27;;;;;;;9.20;4.27;;;8.50;99.90;;;;;;4917021;29;20236;-67
2021/03/20 07:51:56;;;;;;;7.47;4.13;;;8.80;99.90;;;;;;4917696;29;20577;-67
2021/03/20 07:54:27;;;;;;;6.23;4.00;;;9.10;99.90;;;;;;4916986;29;20641;-67
2021/03/20 07:56:54;;;;;;;5.90;4.13;;;9.10;99.90;;;;;;4916622;29;20225;-67
2021/03/20 07:59:25;;;;;;;12.70;4.37;;;9.70;99.90;;;;;;4916550;29;20257;-68
2021/03/20 08:01:55;;;;;;;6.77;4.60;;;9.90;99.90;;;;;;4916823;29;20628;-68
2021/03/20 08:04:51;;;;;;;6.17;4.27;;;10.10;99.90;;;;;;4916336;29;20641;-68
2021/03/20 08:07:40;;;;;;;5.53;3.63;;;9.90;99.90;;;;;;4916682;29;20233;-67
2021/03/20 08:10:23;;;;;;;5.97;4.30;;;10.70;99.90;;;;;;4916825;29;20241;-68
2021/03/20 08:12:58;;;;;;;7.23;4.50;;;10.60;99.90;;;;;;4914929;29;20221;-68
2021/03/20 08:15:29;;;;;;;8.00;4.17;;;11.10;99.90;;;;;;4916690;29;20641;-67
2021/03/20 08:17:57;;;;;;;7.10;4.07;;;11.20;99.90;;;;;;4916445;29;20236;-68
2021/03/20 08:20:24;;;;;;;6.07;3.77;;;11.40;99.90;;;;;;4916603;29;20546;-67
2021/03/20 08:23:11;;;;;;;6.10;4.27;;;11.40;99.90;;;;;;4916717;29;20222;-67
2021/03/20 08:25:48;;;;;;;5.93;4.23;;;11.60;99.60;;;;;;4916610;29;20241;-68
2021/03/20 08:28:45;;;;;;;6.67;4.33;;;11.60;99.20;;;;;;4916425;29;20205;-71
2021/03/20 08:31:24;;;;;;;6.87;4.23;;;12.10;99.20;;;;;;4914488;29;20209;-72
2021/03/20 08:34:10;;;;;;;6.07;3.73;;;12.40;98.40;;;;;;4919284;29;20684;-70
2021/03/20 08:36:54;;;;;;;6.30;3.77;;;12.40;98.40;;;;;;4918690;29;20243;-66
2021/03/20 08:39:38;;;;;;;5.37;3.60;;;12.30;98.40;;;;;;4915810;29;20305;-71
2021/03/20 08:42:16;;;;;;;7.50;4.23;;;12.50;97.90;;;;;;4911681;29;20218;-69
2021/03/20 08:45:00;;;;;;;4.73;3.50;;;11.80;98.10;;;;;;4919913;29;20240;-69
2021/03/20 08:48:09;;;;;;;8.63;3.87;;;11.90;97.70;;;;;;4919718;29;20241;-69
2021/03/20 08:50:44;;;;;;;5.67;3.80;;;10.40;99.70;;;;;;4919901;29;20209;-71
2021/03/20 08:53:15;;;;;;;6.17;3.70;;;11.40;99.60;;;;;;4919665;29;20673;-68
2021/03/20 08:56:20;;;;;;;5.93;3.80;;;10.90;99.40;;;;;;4918993;29;20209;-71
2021/03/20 08:58:59;;;;;;;4.80;3.40;;;11.10;99.30;;;;;;4919584;29;20216;-68
2021/03/20 09:01:38;;;;;;;6.00;3.97;;;10.80;99.40;;;;;;4919907;29;20265;-70
2021/03/20 09:04:08;;;;;;;5.17;3.63;;;11.40;99.10;;;;;;4919847;29;20213;-67
2021/03/20 09:06:38;;;;;;;6.20;4.23;;;12.00;98.40;;;;;;4919581;29;20264;-68
2021/03/20 09:09:12;;;;;;;5.67;3.90;;;12.50;97.60;;;;;;4919088;29;20212;-69
2021/03/20 09:11:43;;;;;;;6.83;4.03;;;11.90;97.70;;;;;;4919532;29;20210;-69
2021/03/20 09:14:16;;;;;;;6.70;4.23;;;11.30;98.80;;;;;;4919387;29;20277;-69
2021/03/20 09:16:47;;;;;;;6.50;4.00;;;11.40;98.80;;;;;;4919603;29;20241;-68
2021/03/20 09:19:22;;;;;;;6.03;3.87;;;11.10;99.00;;;;;;4918933;29;20264;-67
2021/03/20 09:21:49;;;;;;;7.30;3.90;;;11.50;97.10;;;;;;4919316;29;20209;-66
2021/03/20 09:24:20;;;;;;;8.57;4.50;;;11.80;97.40;;;;;;4919134;29;20197;-66
2021/03/20 09:26:49;;;;;;;6.83;4.27;;;11.60;96.60;;;;;;4918916;29;20241;-66
2021/03/20 09:29:19;;;;;;;6.87;3.90;;;11.40;97.20;;;;;;4919398;29;20213;-66
2021/03/20 09:32:12;;;;;;;5.57;3.43;;;10.90;97.30;;;;;;4919289;29;20210;-66
2021/03/20 09:34:44;;;;;;;5.67;3.00;;;9.60;99.10;;;;;;4919146;29;20213;-66
2021/03/20 09:37:46;;;;;;;4.30;2.50;;;9.10;98.60;;;;;;4918929;29;20704;-65
2021/03/20 09:40:17;;;;;;;5.10;3.10;;;8.50;99.00;;;;;;4918931;29;20224;-66
2021/03/20 09:42:43;;;;;;;3.63;2.40;;;7.60;99.90;;;;;;4919089;29;20209;-66
2021/03/20 09:45:26;;;;;;;3.77;2.43;;;7.30;99.90;;;;;;4919402;29;20241;-66
2021/03/20 09:47:53;;;;;;;4.97;2.60;;;7.10;99.90;;;;;;4919174;29;20239;-66
2021/03/20 09:50:36;;;;;;;4.57;2.67;;;7.10;99.90;;;;;;4919059;29;20211;-66
2021/03/20 09:53:31;;;;;;;5.17;3.07;;;7.00;99.90;;;;;;4919071;29;20217;-66
2021/03/20 09:56:27;;;;;;;7.10;3.27;;;7.50;99.90;;;;;;4916193;29;20329;-66
2021/03/20 09:58:54;;;;;;;4.03;2.80;;;7.90;99.90;;;;;;4918689;29;20679;-66
2021/03/20 10:01:41;;;;;;;7.23;3.40;;;7.90;99.90;;;;;;4918774;29;20213;-66
2021/03/20 10:04:33;;;;;;;3.30;2.40;;;8.00;99.90;;;;;;4918774;29;20209;-66
2021/03/20 10:07:27;;;;;;;4.33;2.50;;;8.10;99.90;;;;;;4918796;29;20320;-66
2021/03/20 10:09:57;;;;;;;5.83;2.83;;;8.00;99.90;;;;;;4918474;29;20669;-66
2021/03/20 10:12:29;;;;;;;7.43;3.40;;;7.90;99.90;;;;;;4918479;29;20273;-66
2021/03/20 10:15:21;;;;;;;4.30;3.10;;;7.90;99.90;;;;;;4918435;29;20569;-66
2021/03/20 10:18:20;;;;;;;6.33;2.83;;;7.90;99.90;;;;;;4918214;29;20237;-65
2021/03/20 10:20:57;;;;;;;3.80;2.53;;;7.70;99.90;;;;;;4918243;29;20682;-66
2021/03/20 10:23:45;;;;;;;4.27;2.63;;;7.80;99.90;;;;;;4918668;29;20210;-66
2021/03/20 10:26:35;;;;;;;4.23;2.47;;;7.80;99.90;;;;;;4917895;29;20237;-66
2021/03/20 10:29:06;;;;;;;4.20;2.20;;;7.30;99.90;;;;;;4918261;29;20577;-66
2021/03/20 10:31:39;;;;;;;4.40;2.20;;;7.50;99.80;;;;;;4918056;29;20273;-66
2021/03/20 10:34:08;;;;;;;3.93;2.47;;;7.90;99.90;;;;;;4918296;29;20214;-66
2021/03/20 10:36:38;;;;;;;3.97;2.53;;;7.90;99.50;;;;;;4918180;29;20240;-65
2021/03/20 10:39:20;;;;;;;4.37;2.13;;;8.00;99.90;;;;;;4918093;29;20277;-67
2021/03/20 10:41:47;;;;;;;3.90;2.10;;;7.90;99.40;;;;;;4917808;29;20221;-66
2021/03/20 10:44:16;;;;;;;4.43;2.10;;;8.00;98.30;;;;;;4917754;29;20209;-66
2021/03/20 10:46:43;;;;;;;3.43;1.93;;;8.00;98.70;;;;;;4917756;29;20237;-66
2021/03/20 10:49:18;;;;;;;8.83;2.27;;;8.30;98.80;;;;;;4917671;29;20270;-66
2021/03/20 10:51:46;;;;;;;3.07;2.10;;;8.30;97.30;;;;;;4917854;29;20672;-66
2021/03/20 10:54:21;;;;;;;3.77;1.30;;;8.30;97.20;;;;;;4917710;29;20213;-66
2021/03/20 10:56:49;;;;;;;2.93;1.97;;;8.30;95.40;;;;;;4917796;29;20233;-65
2021/03/20 10:59:23;;;;;;;2.03;1.53;;;8.40;96.50;;;;;;4917797;29;20212;-66
2021/03/20 11:01:50;;;;;;;3.13;1.43;;;8.50;95.90;;;;;;4917721;29;20205;-66
2021/03/20 11:04:27;;;;;;;2.27;1.43;;;8.10;95.00;;;;;;4917562;29;20213;-66
2021/03/20 11:06:55;;;;;;;2.00;1.47;;;7.90;96.00;;;;;;4917051;29;20649;-66
2021/03/20 11:09:24;;;;;;;2.97;1.70;;;7.80;95.60;;;;;;4917340;29;20240;-66
2021/03/20 11:11:57;;;;;;;2.07;1.53;;;8.00;96.30;;;;;;4917321;29;20209;-66
2021/03/20 11:14:23;;;;;;;2.63;1.80;;;8.10;95.80;;;;;;4917233;29;20566;-66
2021/03/20 11:16:51;;;;;;;2.80;1.53;;;8.30;94.50;;;;;;4917041;29;20729;-66
2021/03/20 11:19:26;;;;;;;3.13;1.50;;;8.40;93.90;;;;;;4916998;29;20248;-66
2021/03/20 11:22:00;;;;;;;2.63;1.40;;;8.40;92.90;;;;;;4917491;29;20228;-66
2021/03/20 11:24:33;;;;;;;2.70;1.50;;;8.30;93.30;;;;;;4917441;29;20214;-66
2021/03/20 11:27:13;;;;;;;2.60;1.30;;;8.40;94.10;;;;;;4916806;29;20237;-66
2021/03/20 11:29:40;;;;;;;3.30;1.90;;;8.50;93.80;;;;;;4916691;29;20220;-65
2021/03/20 11:32:18;;;;;;;2.33;1.30;;;8.60;93.00;;;;;;4917142;29;20665;-66
2021/03/20 11:34:45;;;;;;;1.97;1.00;;;8.70;92.50;;;;;;4917241;29;20218;-66
2021/03/20 11:37:19;;;;;;;1.30;0.90;;;8.70;92.00;;;;;;4916979;29;20230;-66
2021/03/20 11:39:52;;;;;;;2.07;1.23;;;8.30;91.50;;;;;;4916881;29;20217;-67
2021/03/20 11:42:25;;;;;;;2.20;1.40;;;8.10;92.10;;;;;;4916645;29;20744;-66
2021/03/20 11:44:52;;;;;;;3.50;1.30;;;8.10;91.80;;;;;;4916856;29;20621;-67
2021/03/20 11:47:22;;;;;;;1.60;1.00;;;8.30;91.00;;;;;;4916902;29;20346;-67
2021/03/20 11:49:52;;;;;;;1.10;0.90;;;8.30;90.90;;;;;;4917064;29;20213;-67
2021/03/20 11:52:21;;;;;;;2.37;1.20;;;8.40;91.60;;;;;;4916978;29;20216;-67
2021/03/20 11:54:57;;;;;;;2.97;1.20;;;8.60;91.60;;;;;;4916893;29;20217;-67
2021/03/20 11:57:31;;;;;;;2.50;1.53;;;8.70;91.60;;;;;;4916991;29;20237;-67
2021/03/20 11:59:58;;;;;;;2.23;1.50;;;8.90;92.50;;;;;;4916637;29;20213;-67
2021/03/20 12:02:37;;;;;;;3.03;1.20;;;9.00;90.70;;;;;;4916201;29;20213;-66
2021/03/20 12:05:25;;;;;;;2.87;1.50;;;9.00;90.60;;;;;;4916756;29;20708;-67
2021/03/20 12:07:52;;;;;;;2.30;1.33;;;9.10;91.50;;;;;;4916930;29;20236;-66
2021/03/20 12:10:21;;;;;;;2.60;1.20;;;8.90;91.20;;;;;;4916767;29;20213;-67
2021/03/20 12:12:50;;;;;;;1.50;1.20;;;8.90;92.30;;;;;;4916616;29;20216;-67
2021/03/20 12:15:27;;;;;;;2.23;1.40;;;9.00;91.30;;;;;;4916761;29;20209;-66
2021/03/20 12:17:54;;;;;;;3.70;1.70;;;9.10;90.40;;;;;;4916606;29;20597;-66
2021/03/20 12:20:40;;;;;;;1.80;1.10;;;9.10;90.30;;;;;;4916871;29;20573;-67
2021/03/20 12:23:15;;;;;;;2.20;1.20;;;9.30;91.40;;;;;;4916704;29;20263;-66
2021/03/20 12:25:47;;;;;;;2.07;1.20;;;9.50;90.30;;;;;;4916319;29;20575;-66
2021/03/20 12:28:31;;;;;;;1.97;1.10;;;9.50;88.70;;;;;;4916611;29;20665;-67
2021/03/20 12:31:04;;;;;;;1.47;1.27;;;9.40;87.20;;;;;;4916767;29;20264;-67
2021/03/20 12:33:30;;;;;;;3.50;1.17;;;9.20;90.20;;;;;;4916487;29;20217;-67
2021/03/20 12:35:57;;;;;;;2.43;1.27;;;8.80;91.10;;;;;;4916460;29;20206;-67
2021/03/20 12:38:24;;;;;;;2.13;1.30;;;8.60;90.20;;;;;;4916459;29;20221;-66
2021/03/20 12:40:56;;;;;;;1.97;1.30;;;8.80;88.30;;;;;;4916381;29;20217;-67
2021/03/20 12:43:33;;;;;;;2.53;1.00;;;9.00;88.00;;;;;;4916767;29;20225;-66
2021/03/20 12:46:01;;;;;;;4.13;1.43;;;9.30;85.60;;;;;;4916361;29;20237;-66
2021/03/20 12:48:28;;;;;;;1.97;1.30;;;9.30;87.90;;;;;;4916609;29;20218;-67
2021/03/20 12:51:00;;;;;;;2.47;1.33;;;9.40;88.70;;;;;;4916319;29;20213;-67
2021/03/20 12:53:26;;;;;;;2.47;1.30;;;9.20;88.30;;;;;;4916477;29;20205;-66
2021/03/20 12:55:53;;;;;;;1.07;0.90;;;9.10;88.10;;;;;;4915819;29;20691;-66
2021/03/20 12:58:20;;;;;;;1.80;1.30;;;9.10;88.70;;;;;;4916222;29;20209;-64
2021/03/20 13:00:46;;;;;;;3.33;1.07;;;9.20;89.40;;;;;;4916056;29;20729;-66
2021/03/20 13:03:12;;;;;;;2.07;1.07;;;9.20;89.50;;;;;;4916166;29;20580;-66
2021/03/20 13:05:42;;;;;;;2.37;1.47;;;9.10;89.90;;;;;;4915823;29;20241;-66
2021/03/20 13:08:10;;;;;;;2.17;1.27;;;9.20;87.50;;;;;;4915991;29;20297;-67
2021/03/20 13:10:37;;;;;;;1.80;1.23;;;9.20;88.70;;;;;;4916041;29;20687;-67
2021/03/20 13:13:05;;;;;;;2.57;1.20;;;9.40;88.00;;;;;;4918546;29;20213;-66
2021/03/20 13:15:31;;;;;;;2.20;1.23;;;9.60;86.60;;;;;;4919504;29;20220;-66
2021/03/20 13:17:58;;;;;;;1.83;1.40;;;9.70;87.50;;;;;;4919409;29;20586;-66
2021/03/20 13:20:25;;;;;;;1.53;0.87;;;9.80;87.50;;;;;;4919449;29;20217;-66
2021/03/20 13:22:52;;;;;;;2.10;1.20;;;9.70;87.40;;;;;;4919616;29;20264;-67
2021/03/20 13:25:22;;;;;;;1.73;1.13;;;9.70;87.50;;;;;;4919483;29;20249;-66